DRK301 VGHS-VQPR
Flight info
| Callsign | DRK301 |
|---|---|
| Flight time | 0h 47m |
| Altitude | 34000 |
| Route | TEGAK DCT SDP DCT BOGOP DCT TAKTI DCT PRO DCT PR |
| Aircraft | A319/M-SDE3FGHIRWY/LB1 |
Departure
| Time | 2026-04-26 12:28 |
|---|---|
| Airport | Hazrat Shahjalal International Airport (VGHS) |
Arrival
| Time | 2026-04-26 13:16 |
|---|---|
| Airport | Paro International Airport (VQPR) |
| Time | Latitude | Longitude | Altitude | Speed | Heading |
|---|---|---|---|---|---|
| 2026-04-26 11:58 | 23.84581 | 90.40565 | 36 ft | 0 kts | 54° |
| 2026-04-26 12:17 | 23.84570 | 90.40549 | 34 ft | 4 kts | 52° |
| 2026-04-26 12:17 | 23.84553 | 90.40526 | 35 ft | 4 kts | 47° |
| 2026-04-26 12:17 | 23.84534 | 90.40505 | 35 ft | 4 kts | 35° |
| 2026-04-26 12:18 | 23.84512 | 90.40496 | 33 ft | 3 kts | 333° |
| 2026-04-26 12:18 | 23.84505 | 90.40500 | 35 ft | 0 kts | 323° |
| 2026-04-26 12:21 | 23.84528 | 90.40481 | 35 ft | 7 kts | 323° |
| 2026-04-26 12:21 | 23.84576 | 90.40443 | 36 ft | 8 kts | 323° |
| 2026-04-26 12:21 | 23.84621 | 90.40407 | 36 ft | 9 kts | 323° |
| 2026-04-26 12:22 | 23.84682 | 90.40359 | 36 ft | 11 kts | 324° |
| 2026-04-26 12:22 | 23.84680 | 90.40298 | 35 ft | 9 kts | 236° |
| 2026-04-26 12:22 | 23.84646 | 90.40245 | 36 ft | 8 kts | 234° |
| 2026-04-26 12:22 | 23.84597 | 90.40239 | 36 ft | 10 kts | 153° |
| 2026-04-26 12:23 | 23.84530 | 90.40292 | 36 ft | 14 kts | 143° |
| 2026-04-26 12:23 | 23.84442 | 90.40362 | 36 ft | 18 kts | 144° |
| 2026-04-26 12:23 | 23.84329 | 90.40451 | 36 ft | 20 kts | 144° |
| 2026-04-26 12:23 | 23.84225 | 90.40534 | 36 ft | 18 kts | 144° |
| 2026-04-26 12:24 | 23.84120 | 90.40618 | 36 ft | 19 kts | 144° |
| 2026-04-26 12:24 | 23.84007 | 90.40707 | 36 ft | 21 kts | 144° |
| 2026-04-26 12:24 | 23.83895 | 90.40796 | 36 ft | 20 kts | 144° |
| 2026-04-26 12:25 | 23.83679 | 90.40968 | 36 ft | 17 kts | 144° |
| 2026-04-26 12:25 | 23.83590 | 90.41038 | 36 ft | 16 kts | 144° |
| 2026-04-26 12:25 | 23.83498 | 90.41110 | 35 ft | 16 kts | 144° |
| 2026-04-26 12:25 | 23.83443 | 90.41100 | 36 ft | 9 kts | 234° |
| 2026-04-26 12:26 | 23.83395 | 90.41029 | 36 ft | 15 kts | 233° |
| 2026-04-26 12:26 | 23.83326 | 90.40927 | 36 ft | 17 kts | 233° |
| 2026-04-26 12:26 | 23.83259 | 90.40826 | 36 ft | 15 kts | 234° |
| 2026-04-26 12:26 | 23.83202 | 90.40739 | 37 ft | 13 kts | 234° |
| 2026-04-26 12:27 | 23.83215 | 90.40670 | 35 ft | 9 kts | 322° |
| 2026-04-26 12:27 | 23.83275 | 90.40622 | 37 ft | 22 kts | 324° |
| 2026-04-26 12:27 | 23.83608 | 90.40358 | 37 ft | 93 kts | 324° |
| 2026-04-26 12:27 | 23.84293 | 90.39816 | 36 ft | 148 kts | 324° |
| 2026-04-26 12:28 | 23.85179 | 90.39106 | 515 ft | 154 kts | 325° |
| 2026-04-26 12:28 | 23.86024 | 90.38381 | 1120 ft | 156 kts | 317° |
| 2026-04-26 12:28 | 23.86538 | 90.37336 | 1643 ft | 158 kts | 288° |
| 2026-04-26 12:28 | 23.86973 | 90.36224 | 2033 ft | 167 kts | 295° |
| 2026-04-26 12:29 | 23.87550 | 90.35065 | 2329 ft | 181 kts | 298° |
| 2026-04-26 12:29 | 23.88202 | 90.33815 | 2483 ft | 207 kts | 297° |
| 2026-04-26 12:29 | 23.89800 | 90.30692 | 3151 ft | 258 kts | 296° |
| 2026-04-26 12:30 | 23.90390 | 90.29528 | 3483 ft | 271 kts | 296° |
| 2026-04-26 12:30 | 23.91622 | 90.27107 | 4602 ft | 278 kts | 296° |
| 2026-04-26 12:30 | 23.92675 | 90.25320 | 5534 ft | 280 kts | 302° |
| 2026-04-26 12:31 | 23.94920 | 90.21840 | 7437 ft | 278 kts | 302° |
| 2026-04-26 12:31 | 23.96019 | 90.20122 | 8376 ft | 277 kts | 303° |
| 2026-04-26 12:31 | 23.97120 | 90.18399 | 9336 ft | 275 kts | 303° |
| 2026-04-26 12:31 | 23.98217 | 90.16682 | 10111 ft | 280 kts | 303° |
| 2026-04-26 12:32 | 23.99378 | 90.14860 | 10349 ft | 303 kts | 303° |
| 2026-04-26 12:32 | 24.00627 | 90.12899 | 10622 ft | 322 kts | 303° |
| 2026-04-26 12:32 | 24.02799 | 90.09503 | 11675 ft | 331 kts | 304° |
| 2026-04-26 12:33 | 24.04121 | 90.07437 | 12387 ft | 333 kts | 304° |
| 2026-04-26 12:33 | 24.05461 | 90.05346 | 13118 ft | 336 kts | 304° |
| 2026-04-26 12:33 | 24.06806 | 90.03245 | 13810 ft | 338 kts | 304° |
| 2026-04-26 12:33 | 24.08154 | 90.01132 | 14436 ft | 340 kts | 304° |
| 2026-04-26 12:34 | 24.09514 | 89.98999 | 15065 ft | 343 kts | 304° |
| 2026-04-26 12:34 | 24.10879 | 89.96854 | 15690 ft | 345 kts | 304° |
| 2026-04-26 12:34 | 24.12255 | 89.94690 | 16295 ft | 347 kts | 304° |
| 2026-04-26 12:34 | 24.13641 | 89.92508 | 16905 ft | 350 kts | 304° |
| 2026-04-26 12:35 | 24.15035 | 89.90312 | 17512 ft | 352 kts | 304° |
| 2026-04-26 12:35 | 24.16440 | 89.88102 | 18093 ft | 355 kts | 304° |
| 2026-04-26 12:35 | 24.17856 | 89.85875 | 18589 ft | 358 kts | 304° |
| 2026-04-26 12:35 | 24.19429 | 89.83751 | 19089 ft | 362 kts | 313° |
| 2026-04-26 12:36 | 24.21396 | 89.81999 | 19576 ft | 369 kts | 324° |
| 2026-04-26 12:36 | 24.23664 | 89.80635 | 20075 ft | 373 kts | 329° |
| 2026-04-26 12:36 | 24.25973 | 89.79307 | 20572 ft | 376 kts | 329° |
| 2026-04-26 12:36 | 24.28265 | 89.77983 | 21066 ft | 379 kts | 328° |
| 2026-04-26 12:37 | 24.30606 | 89.76630 | 21537 ft | 382 kts | 328° |
| 2026-04-26 12:37 | 24.32959 | 89.75266 | 22007 ft | 385 kts | 328° |
| 2026-04-26 12:37 | 24.35339 | 89.73884 | 22464 ft | 388 kts | 328° |
| 2026-04-26 12:37 | 24.37722 | 89.72496 | 22914 ft | 390 kts | 328° |
| 2026-04-26 12:38 | 24.40139 | 89.71088 | 23351 ft | 393 kts | 328° |
| 2026-04-26 12:38 | 24.42564 | 89.69678 | 23707 ft | 396 kts | 328° |
| 2026-04-26 12:38 | 24.45017 | 89.68254 | 24057 ft | 399 kts | 328° |
| 2026-04-26 12:38 | 24.47474 | 89.66823 | 24402 ft | 401 kts | 328° |
| 2026-04-26 12:39 | 24.49950 | 89.65379 | 24745 ft | 404 kts | 328° |
| 2026-04-26 12:39 | 24.52446 | 89.63927 | 25084 ft | 407 kts | 328° |
| 2026-04-26 12:39 | 24.54955 | 89.62470 | 25415 ft | 410 kts | 328° |
| 2026-04-26 12:39 | 24.57482 | 89.61001 | 25747 ft | 412 kts | 328° |
| 2026-04-26 12:40 | 24.60023 | 89.59522 | 26077 ft | 415 kts | 328° |
| 2026-04-26 12:40 | 24.62582 | 89.58030 | 26412 ft | 417 kts | 328° |
| 2026-04-26 12:40 | 24.65155 | 89.56529 | 26729 ft | 420 kts | 328° |
| 2026-04-26 12:40 | 24.67717 | 89.55035 | 27044 ft | 423 kts | 328° |
| 2026-04-26 12:41 | 24.70321 | 89.53517 | 27354 ft | 425 kts | 328° |
| 2026-04-26 12:41 | 24.72941 | 89.51987 | 27655 ft | 428 kts | 328° |
| 2026-04-26 12:41 | 24.75591 | 89.50436 | 27951 ft | 431 kts | 328° |
| 2026-04-26 12:41 | 24.78248 | 89.48881 | 28238 ft | 434 kts | 328° |
| 2026-04-26 12:42 | 24.80917 | 89.47320 | 28523 ft | 437 kts | 328° |
| 2026-04-26 12:42 | 24.83608 | 89.45749 | 28801 ft | 439 kts | 328° |
| 2026-04-26 12:42 | 24.86323 | 89.44164 | 29072 ft | 442 kts | 328° |
| 2026-04-26 12:42 | 24.89047 | 89.42571 | 29332 ft | 445 kts | 328° |
| 2026-04-26 12:43 | 24.91785 | 89.40971 | 29590 ft | 448 kts | 328° |
| 2026-04-26 12:43 | 24.94546 | 89.39353 | 29844 ft | 450 kts | 328° |
| 2026-04-26 12:43 | 24.97315 | 89.37724 | 30068 ft | 452 kts | 328° |
| 2026-04-26 12:43 | 25.00101 | 89.36082 | 30302 ft | 454 kts | 328° |
| 2026-04-26 12:44 | 25.02896 | 89.34439 | 30558 ft | 455 kts | 328° |
| 2026-04-26 12:44 | 25.05683 | 89.32804 | 30898 ft | 454 kts | 328° |
| 2026-04-26 12:44 | 25.08477 | 89.31165 | 31245 ft | 453 kts | 328° |
| 2026-04-26 12:44 | 25.11258 | 89.29532 | 31597 ft | 452 kts | 328° |
| 2026-04-26 12:45 | 25.14031 | 89.27902 | 31950 ft | 451 kts | 328° |
| 2026-04-26 12:45 | 25.16795 | 89.26274 | 32295 ft | 451 kts | 328° |
| 2026-04-26 12:45 | 25.19564 | 89.24643 | 32667 ft | 450 kts | 328° |
| 2026-04-26 12:45 | 25.22328 | 89.23014 | 33025 ft | 449 kts | 328° |
| 2026-04-26 12:46 | 25.25041 | 89.21414 | 33377 ft | 449 kts | 328° |
| 2026-04-26 12:46 | 25.27794 | 89.19790 | 33687 ft | 449 kts | 329° |
| 2026-04-26 12:46 | 25.30553 | 89.18162 | 33763 ft | 447 kts | 329° |
| 2026-04-26 12:47 | 25.36013 | 89.14938 | 33764 ft | 444 kts | 329° |
| 2026-04-26 12:47 | 25.41455 | 89.11715 | 33771 ft | 444 kts | 329° |
| 2026-04-26 12:48 | 25.46913 | 89.08482 | 33765 ft | 445 kts | 329° |
| 2026-04-26 12:48 | 25.52376 | 89.05244 | 33769 ft | 445 kts | 329° |
| 2026-04-26 12:49 | 25.57833 | 89.02006 | 33769 ft | 445 kts | 329° |
| 2026-04-26 12:49 | 25.63304 | 88.98759 | 33769 ft | 445 kts | 329° |
| 2026-04-26 12:50 | 25.68724 | 88.95544 | 33768 ft | 446 kts | 330° |
| 2026-04-26 12:50 | 25.71640 | 88.94326 | 33654 ft | 449 kts | 343° |
| 2026-04-26 12:50 | 25.74797 | 88.93918 | 32935 ft | 455 kts | 358° |
| 2026-04-26 12:50 | 25.77919 | 88.94335 | 32164 ft | 462 kts | 10° |
| 2026-04-26 12:51 | 25.80992 | 88.95485 | 31375 ft | 470 kts | 21° |
| 2026-04-26 12:51 | 25.83840 | 88.97318 | 30582 ft | 478 kts | 33° |
| 2026-04-26 12:51 | 25.86512 | 88.99553 | 29732 ft | 483 kts | 34° |
| 2026-04-26 12:51 | 25.89190 | 89.01825 | 28853 ft | 484 kts | 34° |
| 2026-04-26 12:52 | 25.91843 | 89.04100 | 28227 ft | 479 kts | 34° |
| 2026-04-26 12:52 | 25.94457 | 89.06358 | 27623 ft | 475 kts | 34° |
| 2026-04-26 12:52 | 25.97052 | 89.08603 | 27020 ft | 470 kts | 34° |
| 2026-04-26 12:52 | 25.99622 | 89.10822 | 26428 ft | 465 kts | 33° |
| 2026-04-26 12:53 | 26.02167 | 89.13012 | 25842 ft | 461 kts | 33° |
| 2026-04-26 12:53 | 26.04691 | 89.15182 | 25282 ft | 456 kts | 33° |
| 2026-04-26 12:53 | 26.07193 | 89.17331 | 24734 ft | 452 kts | 33° |
| 2026-04-26 12:53 | 26.09677 | 89.19466 | 24195 ft | 448 kts | 33° |
| 2026-04-26 12:54 | 26.12129 | 89.21577 | 23667 ft | 444 kts | 33° |
| 2026-04-26 12:54 | 26.14561 | 89.23672 | 23122 ft | 441 kts | 33° |
| 2026-04-26 12:54 | 26.16984 | 89.25760 | 22717 ft | 439 kts | 33° |
| 2026-04-26 12:54 | 26.19391 | 89.27835 | 22338 ft | 437 kts | 33° |
| 2026-04-26 12:55 | 26.21792 | 89.29905 | 21959 ft | 434 kts | 33° |
| 2026-04-26 12:55 | 26.24176 | 89.31964 | 21588 ft | 432 kts | 33° |
| 2026-04-26 12:55 | 26.26540 | 89.34007 | 21221 ft | 429 kts | 33° |
| 2026-04-26 12:55 | 26.28895 | 89.36042 | 20859 ft | 427 kts | 33° |
| 2026-04-26 12:56 | 26.31237 | 89.38065 | 20501 ft | 425 kts | 33° |
| 2026-04-26 12:56 | 26.33565 | 89.40079 | 20148 ft | 423 kts | 34° |
| 2026-04-26 12:56 | 26.35883 | 89.42089 | 19796 ft | 420 kts | 34° |
| 2026-04-26 12:56 | 26.38188 | 89.44088 | 19450 ft | 418 kts | 34° |
| 2026-04-26 12:57 | 26.40445 | 89.46042 | 19111 ft | 416 kts | 34° |
| 2026-04-26 12:57 | 26.42729 | 89.48016 | 18774 ft | 414 kts | 34° |
| 2026-04-26 12:57 | 26.44997 | 89.49982 | 18441 ft | 412 kts | 34° |
| 2026-04-26 12:58 | 26.49498 | 89.53893 | 17807 ft | 408 kts | 34° |
| 2026-04-26 12:58 | 26.51739 | 89.55839 | 17894 ft | 409 kts | 35° |
| 2026-04-26 12:58 | 26.53980 | 89.57786 | 17848 ft | 408 kts | 35° |
| 2026-04-26 12:58 | 26.56223 | 89.59742 | 17828 ft | 409 kts | 35° |
| 2026-04-26 12:59 | 26.58463 | 89.61697 | 17576 ft | 407 kts | 35° |
| 2026-04-26 12:59 | 26.60697 | 89.63643 | 17325 ft | 406 kts | 35° |
| 2026-04-26 12:59 | 26.62917 | 89.65577 | 17072 ft | 404 kts | 35° |
| 2026-04-26 12:59 | 26.65107 | 89.67490 | 16834 ft | 403 kts | 35° |
| 2026-04-26 13:00 | 26.67356 | 89.69400 | 16588 ft | 399 kts | 30° |
| 2026-04-26 13:00 | 26.69747 | 89.70776 | 16349 ft | 383 kts | 17° |
| 2026-04-26 13:00 | 26.72268 | 89.71515 | 16111 ft | 368 kts | 4° |
| 2026-04-26 13:00 | 26.74759 | 89.71631 | 15887 ft | 353 kts | 352° |
| 2026-04-26 13:01 | 26.77168 | 89.71171 | 15772 ft | 336 kts | 340° |
| 2026-04-26 13:01 | 26.79262 | 89.70278 | 15796 ft | 318 kts | 330° |
| 2026-04-26 13:01 | 26.81115 | 89.69048 | 15804 ft | 302 kts | 323° |
| 2026-04-26 13:01 | 26.82840 | 89.67788 | 15792 ft | 289 kts | 323° |
| 2026-04-26 13:02 | 26.84472 | 89.66600 | 15819 ft | 274 kts | 323° |
| 2026-04-26 13:02 | 26.86033 | 89.65461 | 15812 ft | 262 kts | 323° |
| 2026-04-26 13:02 | 26.87533 | 89.64364 | 15820 ft | 254 kts | 323° |
| 2026-04-26 13:02 | 26.89008 | 89.63281 | 15823 ft | 253 kts | 323° |
| 2026-04-26 13:03 | 26.90475 | 89.62203 | 15831 ft | 252 kts | 323° |
| 2026-04-26 13:03 | 26.91947 | 89.61122 | 15832 ft | 253 kts | 323° |
| 2026-04-26 13:03 | 26.93419 | 89.60043 | 15840 ft | 254 kts | 323° |
| 2026-04-26 13:03 | 26.94904 | 89.58957 | 15729 ft | 253 kts | 323° |
| 2026-04-26 13:04 | 26.96382 | 89.57876 | 15621 ft | 253 kts | 323° |
| 2026-04-26 13:04 | 26.97853 | 89.56799 | 15500 ft | 252 kts | 323° |
| 2026-04-26 13:04 | 26.98926 | 89.56011 | 15419 ft | 252 kts | 324° |
| 2026-04-26 13:04 | 27.00383 | 89.54937 | 15296 ft | 252 kts | 323° |
| 2026-04-26 13:05 | 27.01848 | 89.53857 | 15178 ft | 251 kts | 323° |
| 2026-04-26 13:05 | 27.03311 | 89.52779 | 15062 ft | 251 kts | 323° |
| 2026-04-26 13:05 | 27.04809 | 89.51782 | 14947 ft | 253 kts | 337° |
| 2026-04-26 13:05 | 27.06561 | 89.51463 | 14845 ft | 258 kts | 354° |
| 2026-04-26 13:06 | 27.08352 | 89.51384 | 14731 ft | 255 kts | 355° |
| 2026-04-26 13:06 | 27.10088 | 89.51321 | 14617 ft | 246 kts | 355° |
| 2026-04-26 13:06 | 27.11782 | 89.51260 | 14502 ft | 242 kts | 355° |
| 2026-04-26 13:06 | 27.13463 | 89.51198 | 14390 ft | 241 kts | 356° |
| 2026-04-26 13:07 | 27.15135 | 89.51134 | 14279 ft | 240 kts | 356° |
| 2026-04-26 13:07 | 27.16805 | 89.51066 | 14173 ft | 241 kts | 355° |
| 2026-04-26 13:07 | 27.18453 | 89.50996 | 14065 ft | 240 kts | 355° |
| 2026-04-26 13:07 | 27.20125 | 89.50925 | 13954 ft | 240 kts | 355° |
| 2026-04-26 13:08 | 27.21785 | 89.50854 | 13863 ft | 237 kts | 356° |
| 2026-04-26 13:08 | 27.23395 | 89.50786 | 13758 ft | 226 kts | 355° |
| 2026-04-26 13:08 | 27.24921 | 89.50721 | 13626 ft | 214 kts | 356° |
| 2026-04-26 13:08 | 27.26383 | 89.50660 | 13511 ft | 206 kts | 356° |
| 2026-04-26 13:09 | 27.27787 | 89.50603 | 13385 ft | 198 kts | 356° |
| 2026-04-26 13:09 | 27.29110 | 89.50545 | 13233 ft | 183 kts | 354° |
| 2026-04-26 13:09 | 27.30308 | 89.50202 | 13072 ft | 176 kts | 333° |
| 2026-04-26 13:09 | 27.31317 | 89.49474 | 12862 ft | 171 kts | 321° |
| 2026-04-26 13:10 | 27.32281 | 89.48687 | 12639 ft | 171 kts | 322° |
| 2026-04-26 13:10 | 27.33243 | 89.47908 | 12414 ft | 171 kts | 323° |
| 2026-04-26 13:10 | 27.34209 | 89.47128 | 12164 ft | 171 kts | 323° |
| 2026-04-26 13:10 | 27.35175 | 89.46349 | 11849 ft | 170 kts | 323° |
| 2026-04-26 13:11 | 27.36063 | 89.45477 | 11561 ft | 170 kts | 312° |
| 2026-04-26 13:11 | 27.36863 | 89.44502 | 11279 ft | 169 kts | 312° |
| 2026-04-26 13:11 | 27.37656 | 89.43526 | 11055 ft | 169 kts | 311° |
| 2026-04-26 13:11 | 27.38449 | 89.42530 | 10838 ft | 173 kts | 311° |
| 2026-04-26 13:12 | 27.39239 | 89.41498 | 10630 ft | 175 kts | 309° |
| 2026-04-26 13:12 | 27.40041 | 89.40461 | 10380 ft | 176 kts | 311° |
| 2026-04-26 13:12 | 27.40852 | 89.39443 | 10209 ft | 173 kts | 309° |
| 2026-04-26 13:12 | 27.41562 | 89.38366 | 10033 ft | 170 kts | 304° |
| 2026-04-26 13:13 | 27.42264 | 89.37301 | 9819 ft | 168 kts | 307° |
| 2026-04-26 13:13 | 27.43112 | 89.36411 | 9537 ft | 168 kts | 330° |
| 2026-04-26 13:13 | 27.44240 | 89.36256 | 9200 ft | 167 kts | 16° |
| 2026-04-26 13:13 | 27.45089 | 89.37083 | 8872 ft | 165 kts | 66° |
| 2026-04-26 13:14 | 27.45071 | 89.38331 | 8621 ft | 164 kts | 111° |
| 2026-04-26 13:14 | 27.44580 | 89.39489 | 8246 ft | 163 kts | 118° |
| 2026-04-26 13:14 | 27.44029 | 89.40547 | 8013 ft | 153 kts | 122° |
| 2026-04-26 13:14 | 27.43305 | 89.41363 | 7717 ft | 148 kts | 156° |
| 2026-04-26 13:15 | 27.42304 | 89.41593 | 7546 ft | 147 kts | 178° |
| 2026-04-26 13:15 | 27.41315 | 89.41845 | 7400 ft | 149 kts | 152° |
| 2026-04-26 13:15 | 27.40457 | 89.42388 | 7320 ft | 127 kts | 151° |
| 2026-04-26 13:15 | 27.40005 | 89.42674 | 7303 ft | 93 kts | 150° |
| 2026-04-26 13:16 | 27.39558 | 89.42960 | 7291 ft | 11 kts | 150° |
| 2026-04-26 13:16 | 27.39507 | 89.42987 | 7286 ft | 13 kts | 163° |
| 2026-04-26 13:16 | 27.39468 | 89.43011 | 7286 ft | 1 kts | 6° |
| 2026-04-26 13:16 | 27.39471 | 89.43011 | 7286 ft | 1 kts | 0° |
| 2026-04-26 13:17 | 27.39507 | 89.42992 | 7286 ft | 3 kts | 333° |
| 2026-04-26 13:17 | 27.39525 | 89.42981 | 7288 ft | 6 kts | 331° |
| 2026-04-26 13:18 | 27.39701 | 89.42869 | 7297 ft | 24 kts | 330° |
| 2026-04-26 13:18 | 27.39863 | 89.42765 | 7300 ft | 28 kts | 330° |
| 2026-04-26 13:18 | 27.40172 | 89.42569 | 7310 ft | 23 kts | 330° |
| 2026-04-26 13:19 | 27.40306 | 89.42484 | 7312 ft | 21 kts | 330° |
| 2026-04-26 13:19 | 27.40410 | 89.42419 | 7316 ft | 15 kts | 331° |
| 2026-04-26 13:19 | 27.40504 | 89.42358 | 7326 ft | 16 kts | 330° |
| 2026-04-26 13:19 | 27.40590 | 89.42302 | 7328 ft | 13 kts | 320° |
| 2026-04-26 13:20 | 27.40584 | 89.42225 | 7327 ft | 9 kts | 253° |
| 2026-04-26 13:20 | 27.40616 | 89.42181 | 7326 ft | 6 kts | 330° |
| 2026-04-26 13:20 | 27.40646 | 89.42162 | 7326 ft | 4 kts | 327° |
| 2026-04-26 13:20 | 27.40650 | 89.42146 | 7326 ft | 3 kts | 257° |
| 2026-04-26 13:21 | 27.40640 | 89.42122 | 7325 ft | 3 kts | 239° |
| 2026-04-26 13:21 | 27.40630 | 89.42103 | 7324 ft | 2 kts | 240° |
| 2026-04-26 13:21 | 27.40629 | 89.42102 | 7324 ft | 0 kts | 240° |